Time;durP1;ratioP1;P1;durP2;ratioP2;P2;SDS_P1;SDS_P2;PMS_P1;PMS_P2;Temp;Humidity;BMP_temperature;BMP_pressure;BME280_temperature;BME280_humidity;BME280_pressure;Samples;Min_cycle;Max_cycle;Signal;HPM_P1;HPM_P2
2024/01/01 00:00:25;;;;;;;50.97;31.97;;;;;;;;;;756253;182;629150;-69
2024/01/01 00:02:51;;;;;;;52.95;32.38;;;;;;;;;;755922;182;855133;-64
2024/01/01 00:05:16;;;;;;;53.00;33.13;;;;;;;;;;761026;182;715811;-69
2024/01/01 00:07:42;;;;;;;44.63;30.48;;;;;;;;;;745886;185;918335;-64
2024/01/01 00:10:08;;;;;;;53.07;32.10;;;;;;;;;;749293;181;919043;-64
2024/01/01 00:12:34;;;;;;;54.00;31.00;;;;;;;;;;752096;186;919358;-70
2024/01/01 00:15:00;;;;;;;53.17;31.90;;;;;;;;;;757089;181;959106;-64
2024/01/01 00:17:26;;;;;;;65.07;33.50;;;;;;;;;;757425;181;819812;-70
2024/01/01 00:19:52;;;;;;;50.60;32.83;;;;;;;;;;754562;181;919186;-68
2024/01/01 00:22:18;;;;;;;46.73;32.33;;;;;;;;;;743635;186;814425;-70
2024/01/01 00:24:44;;;;;;;68.53;38.03;;;;;;;;;;761818;182;628248;-63
2024/01/01 00:27:10;;;;;;;58.83;35.20;;;;;;;;;;757557;182;627845;-67
2024/01/01 00:29:35;;;;;;;57.60;35.90;;;;;;;;;;761887;182;632184;-68
2024/01/01 00:32:02;;;;;;;53.93;32.40;;;;;;;;;;754342;182;814712;-69
2024/01/01 00:34:27;;;;;;;55.43;34.40;;;;;;;;;;753840;182;916103;-64
2024/01/01 00:36:53;;;;;;;63.33;35.57;;;;;;;;;;765392;181;818176;-68
2024/01/01 00:39:20;;;;;;;60.83;36.13;;;;;;;;;;766092;181;647081;-68
2024/01/01 00:41:46;;;;;;;63.07;37.30;;;;;;;;;;761300;181;620373;-63
2024/01/01 00:44:12;;;;;;;60.10;39.33;;;;;;;;;;764434;181;639370;-69
2024/01/01 00:46:38;;;;;;;69.63;38.90;;;;;;;;;;760588;181;618580;-69
2024/01/01 00:49:04;;;;;;;66.70;40.07;;;;;;;;;;760051;181;627716;-69
2024/01/01 00:51:30;;;;;;;55.67;38.00;;;;;;;;;;762424;181;643950;-64
2024/01/01 00:53:55;;;;;;;63.80;35.60;;;;;;;;;;766930;181;920830;-63
2024/01/01 00:56:21;;;;;;;65.60;37.80;;;;;;;;;;754521;181;813805;-64
2024/01/01 00:58:47;;;;;;;63.40;37.93;;;;;;;;;;760998;181;824191;-64
2024/01/01 01:01:13;;;;;;;60.53;37.73;;;;;;;;;;760164;181;819563;-69
2024/01/01 01:03:39;;;;;;;61.13;36.07;;;;;;;;;;757589;181;906685;-69
2024/01/01 01:06:05;;;;;;;60.20;34.50;;;;;;;;;;755907;181;919346;-63
2024/01/01 01:08:31;;;;;;;63.33;35.97;;;;;;;;;;755239;184;818850;-62
2024/01/01 01:10:56;;;;;;;69.07;38.40;;;;;;;;;;743210;184;917803;-64
2024/01/01 01:13:22;;;;;;;61.72;39.20;;;;;;;;;;750639;185;915265;-63
2024/01/01 01:15:48;;;;;;;56.63;36.80;;;;;;;;;;751495;183;906935;-67
2024/01/01 01:18:14;;;;;;;77.60;38.13;;;;;;;;;;762604;179;641206;-68
2024/01/01 01:20:40;;;;;;;63.73;36.67;;;;;;;;;;764717;181;634174;-67
2024/01/01 01:23:06;;;;;;;56.50;37.10;;;;;;;;;;764292;181;678382;-64
2024/01/01 01:25:31;;;;;;;64.67;38.67;;;;;;;;;;764201;181;615605;-69
2024/01/01 01:27:57;;;;;;;57.57;37.47;;;;;;;;;;760407;182;634729;-69
2024/01/01 01:30:23;;;;;;;58.77;36.00;;;;;;;;;;759347;182;631212;-63
2024/01/01 01:32:49;;;;;;;58.17;33.90;;;;;;;;;;758064;183;638754;-68
2024/01/01 01:35:15;;;;;;;56.70;34.57;;;;;;;;;;757974;181;633527;-64
2024/01/01 01:37:41;;;;;;;61.80;33.70;;;;;;;;;;758881;182;703806;-70
2024/01/01 01:40:07;;;;;;;49.83;32.20;;;;;;;;;;760596;182;641439;-63
2024/01/01 01:42:33;;;;;;;52.97;31.53;;;;;;;;;;742533;185;624874;-68
2024/01/01 01:44:59;;;;;;;49.87;29.80;;;;;;;;;;755331;185;626268;-64
2024/01/01 01:47:25;;;;;;;45.97;27.90;;;;;;;;;;759741;181;628684;-68
2024/01/01 01:49:50;;;;;;;54.97;30.87;;;;;;;;;;765718;180;815284;-69
2024/01/01 01:52:16;;;;;;;57.73;34.00;;;;;;;;;;753589;183;918113;-68
2024/01/01 01:54:42;;;;;;;56.35;34.00;;;;;;;;;;754243;182;920793;-67
2024/01/01 01:57:08;;;;;;;78.97;35.40;;;;;;;;;;761288;182;819792;-67
2024/01/01 01:59:34;;;;;;;66.07;34.10;;;;;;;;;;745391;187;919173;-63
2024/01/01 02:02:00;;;;;;;59.97;33.63;;;;;;;;;;759689;180;1021548;-68
2024/01/01 02:04:26;;;;;;;59.35;35.35;;;;;;;;;;760103;181;919617;-68
2024/01/01 02:06:51;;;;;;;55.87;34.87;;;;;;;;;;755238;181;921738;-69
2024/01/01 02:09:17;;;;;;;50.27;32.70;;;;;;;;;;757388;181;919607;-70
2024/01/01 02:11:43;;;;;;;50.20;32.43;;;;;;;;;;755308;181;815240;-68
2024/01/01 02:14:10;;;;;;;54.40;32.90;;;;;;;;;;759164;182;916818;-68
2024/01/01 02:16:35;;;;;;;55.27;33.30;;;;;;;;;;762124;180;877485;-68
2024/01/01 02:19:01;;;;;;;62.47;35.63;;;;;;;;;;761519;181;919029;-67
2024/01/01 02:21:27;;;;;;;65.50;35.40;;;;;;;;;;756746;184;919235;-63
2024/01/01 02:23:53;;;;;;;58.43;35.00;;;;;;;;;;753654;182;918976;-67
2024/01/01 02:26:19;;;;;;;53.75;34.15;;;;;;;;;;752212;182;1014158;-68
2024/01/01 02:28:45;;;;;;;67.40;35.67;;;;;;;;;;756965;183;918751;-64
2024/01/01 02:31:11;;;;;;;58.70;31.13;;;;;;;;;;758570;182;918443;-68
2024/01/01 02:33:36;;;;;;;51.80;32.50;;;;;;;;;;752983;184;917087;-68
2024/01/01 02:36:03;;;;;;;57.87;34.80;;;;;;;;;;757797;181;911988;-67
2024/01/01 02:38:28;;;;;;;51.47;31.20;;;;;;;;;;752792;186;817613;-69
2024/01/01 02:40:54;;;;;;;55.63;31.80;;;;;;;;;;763252;180;715206;-68
2024/01/01 02:43:20;;;;;;;57.07;32.47;;;;;;;;;;760874;181;918930;-68
2024/01/01 02:45:46;;;;;;;63.03;36.07;;;;;;;;;;764434;181;710831;-69
2024/01/01 02:48:12;;;;;;;62.90;33.57;;;;;;;;;;756413;182;919396;-64
2024/01/01 02:50:38;;;;;;;58.93;32.50;;;;;;;;;;751838;184;917901;-68
2024/01/01 02:53:04;;;;;;;56.07;33.70;;;;;;;;;;758718;182;884322;-69
2024/01/01 02:55:30;;;;;;;59.00;33.97;;;;;;;;;;756528;181;917546;-68
2024/01/01 02:57:55;;;;;;;65.83;33.07;;;;;;;;;;753069;181;922753;-63
2024/01/01 03:00:21;;;;;;;61.37;33.35;;;;;;;;;;757659;182;811123;-68
2024/01/01 03:02:47;;;;;;;54.83;33.07;;;;;;;;;;752530;182;918510;-63
2024/01/01 03:05:13;;;;;;;57.30;35.20;;;;;;;;;;762966;181;918829;-68
2024/01/01 03:07:39;;;;;;;61.97;33.43;;;;;;;;;;753829;184;921711;-63
2024/01/01 03:10:05;;;;;;;55.70;32.50;;;;;;;;;;758686;183;918426;-63
2024/01/01 03:12:32;;;;;;;54.40;31.70;;;;;;;;;;757825;179;919387;-68
2024/01/01 03:14:57;;;;;;;55.73;33.73;;;;;;;;;;754616;182;919305;-70
2024/01/01 03:17:23;;;;;;;64.10;34.90;;;;;;;;;;760087;181;916417;-64
2024/01/01 03:19:48;;;;;;;55.37;34.13;;;;;;;;;;757257;181;816148;-68
2024/01/01 03:22:14;;;;;;;57.60;34.20;;;;;;;;;;755703;181;921836;-63
2024/01/01 03:24:40;;;;;;;54.67;31.83;;;;;;;;;;759524;184;918919;-70
2024/01/01 03:27:06;;;;;;;65.23;35.50;;;;;;;;;;758314;181;918855;-63
2024/01/01 03:29:32;;;;;;;63.25;32.53;;;;;;;;;;755619;182;919084;-62
2024/01/01 03:31:58;;;;;;;63.33;31.30;;;;;;;;;;753762;181;918903;-63
2024/01/01 03:34:23;;;;;;;62.03;33.90;;;;;;;;;;755946;182;918967;-63
2024/01/01 03:36:50;;;;;;;53.30;32.70;;;;;;;;;;763895;181;919181;-63
2024/01/01 03:39:15;;;;;;;52.57;31.53;;;;;;;;;;753580;182;918831;-68
2024/01/01 03:41:41;;;;;;;53.28;30.83;;;;;;;;;;760354;182;919112;-68
2024/01/01 03:44:10;;;;;;;60.03;32.00;;;;;;;;;;756912;182;714840;-68
2024/01/01 03:46:33;;;;;;;56.67;32.67;;;;;;;;;;763923;181;815424;-63
2024/01/01 03:48:59;;;;;;;51.97;30.00;;;;;;;;;;758908;184;919033;-63
2024/01/01 03:51:24;;;;;;;52.23;32.87;;;;;;;;;;759636;181;917477;-68
2024/01/01 03:53:50;;;;;;;53.93;29.63;;;;;;;;;;751732;183;916784;-63
2024/01/01 03:56:16;;;;;;;56.53;29.10;;;;;;;;;;760350;181;816333;-63
2024/01/01 03:58:42;;;;;;;47.53;26.93;;;;;;;;;;756914;182;937010;-67
2024/01/01 04:01:11;;;;;;;42.97;24.67;;;;;;;;;;756655;180;953952;-67
2024/01/01 04:03:36;;;;;;;42.87;26.53;;;;;;;;;;755624;181;918961;-66
2024/01/01 04:06:03;;;;;;;41.87;27.43;;;;;;;;;;759686;178;920154;-66
2024/01/01 04:08:28;;;;;;;36.57;21.77;;;;;;;;;;752217;183;918950;-66
2024/01/01 04:10:54;;;;;;;37.47;21.15;;;;;;;;;;756935;182;816102;-63
2024/01/01 04:13:20;;;;;;;39.67;24.33;;;;;;;;;;762015;181;918973;-67
2024/01/01 04:15:46;;;;;;;49.47;26.37;;;;;;;;;;762037;181;920809;-68
2024/01/01 04:18:12;;;;;;;46.20;26.23;;;;;;;;;;756446;184;918060;-67
2024/01/01 04:20:37;;;;;;;45.25;27.10;;;;;;;;;;760467;182;921153;-67
2024/01/01 04:23:03;;;;;;;50.33;25.53;;;;;;;;;;758264;182;818250;-67
2024/01/01 04:25:29;;;;;;;41.67;23.90;;;;;;;;;;759116;181;899760;-67
2024/01/01 04:27:55;;;;;;;43.63;23.80;;;;;;;;;;760559;181;935987;-67
2024/01/01 04:30:21;;;;;;;33.27;20.77;;;;;;;;;;762151;182;918377;-63
2024/01/01 04:32:47;;;;;;;35.10;20.60;;;;;;;;;;764666;178;919263;-67
2024/01/01 04:35:12;;;;;;;32.10;18.43;;;;;;;;;;754909;181;919018;-63
2024/01/01 04:37:38;;;;;;;36.60;17.80;;;;;;;;;;763156;181;917094;-67
2024/01/01 04:40:05;;;;;;;28.63;17.93;;;;;;;;;;757855;181;919263;-62
2024/01/01 04:42:31;;;;;;;33.20;18.90;;;;;;;;;;754823;183;818842;-62
2024/01/01 04:44:56;;;;;;;29.20;18.00;;;;;;;;;;761892;182;916247;-63
2024/01/01 04:47:22;;;;;;;28.10;17.23;;;;;;;;;;757342;182;918081;-67
2024/01/01 04:49:48;;;;;;;34.10;17.20;;;;;;;;;;756311;181;919194;-66
2024/01/01 04:52:14;;;;;;;33.30;19.50;;;;;;;;;;755904;181;919701;-63
2024/01/01 04:54:40;;;;;;;29.33;15.33;;;;;;;;;;749858;187;807373;-67
2024/01/01 04:57:06;;;;;;;28.50;15.87;;;;;;;;;;751843;183;909222;-67
2024/01/01 04:59:31;;;;;;;31.73;18.10;;;;;;;;;;753654;182;884393;-63
2024/01/01 05:01:57;;;;;;;31.43;17.97;;;;;;;;;;759893;182;918906;-67
2024/01/01 05:04:23;;;;;;;33.27;18.17;;;;;;;;;;756739;182;937182;-64
2024/01/01 05:06:49;;;;;;;32.90;17.00;;;;;;;;;;758257;178;918773;-66
2024/01/01 05:09:15;;;;;;;32.10;19.10;;;;;;;;;;761415;181;918701;-64
2024/01/01 05:11:41;;;;;;;27.23;16.33;;;;;;;;;;755125;182;921850;-65
2024/01/01 05:14:06;;;;;;;31.57;17.83;;;;;;;;;;757481;182;917965;-65
2024/01/01 05:16:34;;;;;;;31.65;17.23;;;;;;;;;;755486;184;917568;-64
2024/01/01 05:18:59;;;;;;;32.20;18.30;;;;;;;;;;758878;180;914646;-65
2024/01/01 05:21:25;;;;;;;27.95;17.50;;;;;;;;;;755587;183;911418;-64
2024/01/01 05:23:51;;;;;;;30.20;18.10;;;;;;;;;;754916;181;916895;-66
2024/01/01 05:26:17;;;;;;;36.07;19.00;;;;;;;;;;757381;184;908379;-67
2024/01/01 05:28:42;;;;;;;29.77;17.03;;;;;;;;;;755533;183;920310;-65
2024/01/01 05:31:08;;;;;;;33.20;18.30;;;;;;;;;;760952;181;919668;-65
2024/01/01 05:33:34;;;;;;;30.75;19.15;;;;;;;;;;761703;181;933894;-64
2024/01/01 05:36:00;;;;;;;36.03;19.60;;;;;;;;;;755708;180;918369;-67
2024/01/01 05:38:26;;;;;;;38.60;20.03;;;;;;;;;;760296;181;919169;-68
2024/01/01 05:40:51;;;;;;;35.20;18.40;;;;;;;;;;763448;182;870235;-66
2024/01/01 05:43:17;;;;;;;34.23;19.47;;;;;;;;;;755720;181;916277;-64
2024/01/01 05:45:44;;;;;;;29.07;17.90;;;;;;;;;;755346;181;917832;-67
2024/01/01 05:48:09;;;;;;;29.90;19.40;;;;;;;;;;754952;181;916523;-65
2024/01/01 05:50:36;;;;;;;31.70;19.67;;;;;;;;;;759675;182;920274;-64
2024/01/01 05:53:02;;;;;;;31.77;19.92;;;;;;;;;;759661;181;917080;-64
2024/01/01 05:55:28;;;;;;;33.17;19.40;;;;;;;;;;757047;182;919005;-67
2024/01/01 05:57:53;;;;;;;30.98;17.05;;;;;;;;;;764059;182;813078;-68
2024/01/01 06:00:19;;;;;;;30.57;16.83;;;;;;;;;;756743;182;909347;-67
2024/01/01 06:02:45;;;;;;;26.73;16.93;;;;;;;;;;754401;182;918454;-65
2024/01/01 06:05:11;;;;;;;33.97;18.33;;;;;;;;;;762667;181;907669;-67
2024/01/01 06:07:37;;;;;;;28.63;16.77;;;;;;;;;;753090;182;937011;-67
2024/01/01 06:10:03;;;;;;;36.27;18.93;;;;;;;;;;757436;181;919901;-64
2024/01/01 06:12:29;;;;;;;32.37;19.03;;;;;;;;;;754826;181;916153;-67
2024/01/01 06:14:54;;;;;;;27.80;16.40;;;;;;;;;;754687;182;905920;-66
2024/01/01 06:17:20;;;;;;;25.23;14.17;;;;;;;;;;758425;181;920558;-65
2024/01/01 06:19:48;;;;;;;26.90;14.98;;;;;;;;;;751454;184;907857;-68
2024/01/01 06:22:12;;;;;;;23.53;14.40;;;;;;;;;;759167;182;806109;-67
2024/01/01 06:24:38;;;;;;;27.80;19.30;;;;;;;;;;752718;181;852348;-69
2024/01/01 06:27:04;;;;;;;27.97;17.50;;;;;;;;;;761109;181;918874;-65
2024/01/01 06:29:29;;;;;;;22.33;15.73;;;;;;;;;;763504;181;920925;-67
2024/01/01 06:31:55;;;;;;;27.85;16.92;;;;;;;;;;756306;181;918717;-67
2024/01/01 06:34:21;;;;;;;28.83;16.30;;;;;;;;;;747130;186;918735;-65
2024/01/01 06:36:47;;;;;;;32.85;16.75;;;;;;;;;;756220;186;818386;-64
2024/01/01 06:39:13;;;;;;;28.17;15.87;;;;;;;;;;760276;181;918889;-68
2024/01/01 06:41:39;;;;;;;26.60;15.00;;;;;;;;;;758340;181;919157;-66
2024/01/01 06:44:05;;;;;;;23.17;14.63;;;;;;;;;;758460;181;923222;-65
2024/01/01 06:46:30;;;;;;;25.67;15.63;;;;;;;;;;759475;182;918600;-67
2024/01/01 06:48:56;;;;;;;25.47;15.70;;;;;;;;;;754904;182;919564;-67
2024/01/01 06:51:22;;;;;;;24.90;16.03;;;;;;;;;;757773;182;919441;-66
2024/01/01 06:53:48;;;;;;;26.03;12.70;;;;;;;;;;758863;184;909610;-64
2024/01/01 06:56:14;;;;;;;21.90;13.23;;;;;;;;;;753619;182;918061;-65
2024/01/01 06:58:40;;;;;;;26.27;13.50;;;;;;;;;;759347;181;919168;-67
2024/01/01 07:01:05;;;;;;;21.20;12.90;;;;;;;;;;761238;182;911951;-66
2024/01/01 07:03:31;;;;;;;21.90;13.40;;;;;;;;;;759028;181;918979;-65
2024/01/01 07:05:57;;;;;;;23.70;14.93;;;;;;;;;;752039;182;927319;-67
2024/01/01 07:08:23;;;;;;;24.50;13.45;;;;;;;;;;755633;182;818313;-65
2024/01/01 07:10:49;;;;;;;22.53;15.30;;;;;;;;;;755525;182;914068;-67
2024/01/01 07:13:15;;;;;;;24.03;14.40;;;;;;;;;;760957;181;915693;-65
2024/01/01 07:15:41;;;;;;;27.47;14.80;;;;;;;;;;753464;184;914451;-65
2024/01/01 07:18:07;;;;;;;16.10;9.43;;;;;;;;;;758915;182;816590;-65
2024/01/01 07:20:33;;;;;;;6.03;4.00;;;;;;;;;;764576;181;930461;-65
2024/01/01 07:22:58;;;;;;;6.17;4.00;;;;;;;;;;753865;182;923061;-65
2024/01/01 07:25:24;;;;;;;10.17;4.27;;;;;;;;;;759191;182;921701;-67
2024/01/01 07:27:50;;;;;;;5.50;3.67;;;;;;;;;;754883;182;921164;-64
2024/01/01 07:30:16;;;;;;;5.97;4.10;;;;;;;;;;758049;183;922376;-66
2024/01/01 07:32:42;;;;;;;13.70;6.60;;;;;;;;;;755273;183;985232;-65
2024/01/01 07:35:08;;;;;;;10.27;6.10;;;;;;;;;;732451;189;920252;-64
2024/01/01 07:37:34;;;;;;;8.53;5.93;;;;;;;;;;735796;189;919597;-67
2024/01/01 07:40:00;;;;;;;5.43;3.90;;;;;;;;;;765221;181;913511;-67
2024/01/01 07:42:26;;;;;;;6.07;3.87;;;;;;;;;;759019;181;952821;-64
2024/01/01 07:44:52;;;;;;;12.88;5.22;;;;;;;;;;754378;181;919260;-65
2024/01/01 07:47:19;;;;;;;5.90;3.80;;;;;;;;;;754786;181;941617;-66
2024/01/01 07:49:44;;;;;;;8.60;3.23;;;;;;;;;;763038;181;865889;-65
2024/01/01 07:52:09;;;;;;;7.97;4.67;;;;;;;;;;755529;181;918730;-68
2024/01/01 07:54:38;;;;;;;11.77;4.67;;;;;;;;;;752681;182;1019718;-67
2024/01/01 07:57:01;;;;;;;6.22;3.90;;;;;;;;;;754652;182;933215;-65
2024/01/01 07:59:27;;;;;;;5.93;4.13;;;;;;;;;;732541;188;918335;-64
2024/01/01 08:01:53;;;;;;;7.07;4.57;;;;;;;;;;736419;185;800534;-64
2024/01/01 08:04:19;;;;;;;10.80;5.67;;;;;;;;;;739371;186;918785;-67
2024/01/01 08:06:45;;;;;;;9.40;5.10;;;;;;;;;;739798;188;913593;-63
2024/01/01 08:09:10;;;;;;;10.48;5.12;;;;;;;;;;736251;186;893622;-63
2024/01/01 08:11:36;;;;;;;10.03;5.80;;;;;;;;;;735666;189;816738;-66
2024/01/01 08:14:02;;;;;;;10.90;6.30;;;;;;;;;;764633;182;819480;-64
2024/01/01 08:16:28;;;;;;;11.63;6.03;;;;;;;;;;759907;182;922656;-64
2024/01/01 08:18:54;;;;;;;12.70;7.10;;;;;;;;;;765731;181;815527;-65
2024/01/01 08:21:20;;;;;;;14.73;7.60;;;;;;;;;;754865;183;918001;-65
2024/01/01 08:23:46;;;;;;;12.00;7.60;;;;;;;;;;755107;182;875108;-64
2024/01/01 08:26:11;;;;;;;11.40;6.83;;;;;;;;;;754361;182;818745;-63
2024/01/01 08:28:37;;;;;;;14.03;7.20;;;;;;;;;;758625;182;919113;-65
2024/01/01 08:31:03;;;;;;;18.13;8.10;;;;;;;;;;759499;181;907768;-68
2024/01/01 08:33:29;;;;;;;11.33;7.33;;;;;;;;;;756662;181;915365;-65
2024/01/01 08:35:56;;;;;;;12.30;7.63;;;;;;;;;;752300;181;918975;-67
2024/01/01 08:38:21;;;;;;;11.73;7.03;;;;;;;;;;760479;182;915458;-66
2024/01/01 08:40:47;;;;;;;13.03;7.23;;;;;;;;;;754488;181;887035;-66
2024/01/01 08:43:13;;;;;;;12.87;6.97;;;;;;;;;;756571;181;912621;-65
2024/01/01 08:45:39;;;;;;;11.93;6.83;;;;;;;;;;761734;182;814155;-66
2024/01/01 08:48:04;;;;;;;14.30;7.07;;;;;;;;;;754980;183;919205;-68
2024/01/01 08:50:30;;;;;;;14.17;7.37;;;;;;;;;;756112;182;918395;-66
2024/01/01 08:52:56;;;;;;;12.93;6.13;;;;;;;;;;759826;182;924480;-64
2024/01/01 08:55:22;;;;;;;12.50;6.77;;;;;;;;;;753583;181;917948;-64
2024/01/01 08:57:48;;;;;;;14.90;8.43;;;;;;;;;;752169;181;917778;-67
2024/01/01 09:00:16;;;;;;;11.30;6.97;;;;;;;;;;756756;181;916377;-67
2024/01/01 09:02:40;;;;;;;10.30;6.03;;;;;;;;;;758377;183;802503;-67
2024/01/01 09:05:06;;;;;;;9.43;5.85;;;;;;;;;;757219;182;919442;-64
2024/01/01 09:07:32;;;;;;;13.40;7.13;;;;;;;;;;740647;186;905288;-64
2024/01/01 09:10:00;;;;;;;13.60;7.40;;;;;;;;;;750463;186;1019112;-64
2024/01/01 09:12:23;;;;;;;11.73;6.30;;;;;;;;;;759574;179;919388;-67
2024/01/01 09:14:49;;;;;;;12.50;6.77;;;;;;;;;;755047;181;915889;-65
2024/01/01 09:17:15;;;;;;;13.30;8.53;;;;;;;;;;760447;181;916669;-65
2024/01/01 09:19:41;;;;;;;11.03;6.43;;;;;;;;;;752358;182;910453;-64
2024/01/01 09:22:08;;;;;;;9.30;6.05;;;;;;;;;;756299;179;807089;-67
2024/01/01 09:24:33;;;;;;;11.07;6.43;;;;;;;;;;761042;183;637919;-67
2024/01/01 09:26:59;;;;;;;9.13;6.10;;;;;;;;;;756032;183;816150;-65
2024/01/01 09:29:24;;;;;;;11.97;7.10;;;;;;;;;;756140;180;921690;-64
2024/01/01 09:31:50;;;;;;;14.13;6.43;;;;;;;;;;752847;184;919519;-66
2024/01/01 09:34:16;;;;;;;12.02;6.78;;;;;;;;;;759481;181;917871;-66
2024/01/01 09:36:42;;;;;;;12.87;6.30;;;;;;;;;;755147;181;831975;-66
2024/01/01 09:39:08;;;;;;;13.50;7.70;;;;;;;;;;760669;181;871191;-66
2024/01/01 09:41:34;;;;;;;10.73;7.00;;;;;;;;;;762656;182;782281;-67
2024/01/01 09:44:01;;;;;;;13.27;7.50;;;;;;;;;;754891;182;918127;-64
2024/01/01 09:46:28;;;;;;;12.10;6.50;;;;;;;;;;756385;182;889538;-66
2024/01/01 09:48:51;;;;;;;11.10;6.63;;;;;;;;;;757763;183;812225;-68
2024/01/01 09:51:17;;;;;;;10.80;6.87;;;;;;;;;;734886;187;919975;-64
2024/01/01 09:53:44;;;;;;;13.80;8.90;;;;;;;;;;737156;186;916937;-68
2024/01/01 09:56:10;;;;;;;14.50;7.07;;;;;;;;;;738295;185;917722;-67
2024/01/01 09:58:39;;;;;;;11.63;6.37;;;;;;;;;;745128;185;891199;-64
2024/01/01 10:01:10;;;;;;;11.67;6.60;;;;;;;;;;748017;183;1019738;-64
2024/01/01 10:03:36;;;;;;;11.40;5.83;;;;;;;;;;750067;185;918614;-65
2024/01/01 10:06:07;;;;;;;11.23;6.20;;;;;;;;;;760421;181;814751;-68
2024/01/01 10:08:33;;;;;;;8.30;5.70;;;;;;;;;;750571;185;613957;-67
2024/01/01 10:10:58;;;;;;;8.10;5.30;;;;;;;;;;760665;181;888280;-68
2024/01/01 10:13:24;;;;;;;11.23;5.83;;;;;;;;;;756935;182;713480;-65
2024/01/01 10:15:50;;;;;;;10.00;6.37;;;;;;;;;;738279;186;814505;-64
2024/01/01 10:18:16;;;;;;;11.43;5.90;;;;;;;;;;754075;181;817246;-67
2024/01/01 10:20:44;;;;;;;10.80;6.30;;;;;;;;;;758358;181;628496;-68
2024/01/01 10:23:13;;;;;;;9.37;5.97;;;;;;;;;;765331;181;613950;-65
2024/01/01 10:25:39;;;;;;;7.73;5.20;;;;;;;;;;756876;184;618931;-68
2024/01/01 10:28:05;;;;;;;10.63;5.73;;;;;;;;;;761515;181;615330;-67
2024/01/01 10:30:31;;;;;;;11.27;6.20;;;;;;;;;;751791;182;641248;-68
2024/01/01 10:32:57;;;;;;;11.30;5.83;;;;;;;;;;769778;181;621408;-65
2024/01/01 10:35:22;;;;;;;13.07;7.00;;;;;;;;;;768504;180;664111;-67
2024/01/01 10:37:48;;;;;;;9.13;4.67;;;;;;;;;;756495;181;919250;-64
2024/01/01 10:40:15;;;;;;;12.07;5.53;;;;;;;;;;759226;181;919790;-67
2024/01/01 10:42:40;;;;;;;12.33;5.17;;;;;;;;;;756901;181;820932;-64
2024/01/01 10:45:06;;;;;;;9.33;3.20;;;;;;;;;;758198;182;627058;-65
2024/01/01 10:47:32;;;;;;;5.53;3.87;;;;;;;;;;760842;181;633605;-65
2024/01/01 10:50:03;;;;;;;7.50;4.30;;;;;;;;;;760045;183;617091;-67
2024/01/01 10:52:31;;;;;;;7.00;3.73;;;;;;;;;;764333;181;621955;-64
2024/01/01 10:55:05;;;;;;;6.00;3.90;;;;;;;;;;760119;182;625431;-64
2024/01/01 10:57:35;;;;;;;6.17;3.80;;;;;;;;;;760117;181;620452;-64
2024/01/01 11:00:10;;;;;;;7.70;4.80;;;;;;;;;;752470;182;913178;-64
2024/01/01 11:02:36;;;;;;;7.67;3.73;;;;;;;;;;741871;186;918791;-67
2024/01/01 11:05:05;;;;;;;9.40;5.80;;;;;;;;;;761307;182;919935;-64
2024/01/01 11:07:36;;;;;;;9.30;5.23;;;;;;;;;;757855;181;916477;-67
2024/01/01 11:10:02;;;;;;;7.50;4.70;;;;;;;;;;765419;181;917592;-67
2024/01/01 11:12:36;;;;;;;10.33;4.90;;;;;;;;;;754985;182;918804;-67
2024/01/01 11:15:08;;;;;;;6.80;3.70;;;;;;;;;;753312;182;910441;-68
2024/01/01 11:17:34;;;;;;;6.80;3.93;;;;;;;;;;753860;182;916167;-65
2024/01/01 11:20:00;;;;;;;11.27;5.37;;;;;;;;;;754403;181;891652;-67
2024/01/01 11:22:30;;;;;;;8.37;4.70;;;;;;;;;;759626;180;918286;-68
2024/01/01 11:24:55;;;;;;;12.70;5.63;;;;;;;;;;745835;186;919178;-68
2024/01/01 11:27:24;;;;;;;10.70;5.60;;;;;;;;;;748392;186;920379;-68
2024/01/01 11:29:49;;;;;;;7.67;4.40;;;;;;;;;;751635;186;918837;-68
2024/01/01 11:32:15;;;;;;;9.30;5.23;;;;;;;;;;753210;181;929044;-70
2024/01/01 11:34:41;;;;;;;7.10;4.20;;;;;;;;;;753501;182;919091;-70
2024/01/01 11:37:07;;;;;;;10.70;5.03;;;;;;;;;;761606;181;814815;-68
2024/01/01 11:39:33;;;;;;;8.37;5.43;;;;;;;;;;755549;181;919360;-63
2024/01/01 11:41:59;;;;;;;8.73;5.83;;;;;;;;;;760662;179;878678;-64
2024/01/01 11:44:26;;;;;;;9.23;5.10;;;;;;;;;;756050;181;926446;-63
2024/01/01 11:46:52;;;;;;;9.80;6.27;;;;;;;;;;757108;182;808406;-69
2024/01/01 11:49:18;;;;;;;8.60;5.03;;;;;;;;;;740940;185;913634;-69
2024/01/01 11:51:49;;;;;;;8.37;5.47;;;;;;;;;;748782;184;1044689;-70
2024/01/01 11:54:13;;;;;;;11.83;5.90;;;;;;;;;;755670;182;818497;-64
2024/01/01 11:56:39;;;;;;;13.53;7.20;;;;;;;;;;754842;181;916712;-68
2024/01/01 11:59:07;;;;;;;10.47;6.17;;;;;;;;;;751294;182;889840;-68
2024/01/01 12:01:32;;;;;;;9.33;5.93;;;;;;;;;;763787;181;628652;-69
2024/01/01 12:03:58;;;;;;;11.93;6.50;;;;;;;;;;763713;181;816620;-69
2024/01/01 12:06:24;;;;;;;11.80;6.80;;;;;;;;;;760661;181;670694;-65
2024/01/01 12:08:50;;;;;;;16.58;6.45;;;;;;;;;;757240;181;635332;-71
2024/01/01 12:11:16;;;;;;;9.47;5.50;;;;;;;;;;762814;182;619038;-64
2024/01/01 12:13:42;;;;;;;7.90;5.13;;;;;;;;;;746436;186;617947;-65
2024/01/01 12:16:13;;;;;;;9.03;5.27;;;;;;;;;;751045;186;633257;-64
2024/01/01 12:18:39;;;;;;;10.27;5.07;;;;;;;;;;754036;185;626182;-63
2024/01/01 12:21:05;;;;;;;9.50;5.10;;;;;;;;;;755829;182;619318;-64
2024/01/01 12:23:31;;;;;;;6.67;4.67;;;;;;;;;;758455;181;626935;-63
2024/01/01 12:26:00;;;;;;;13.00;5.60;;;;;;;;;;758165;182;634402;-64
2024/01/01 12:28:26;;;;;;;8.17;4.07;;;;;;;;;;761446;181;617936;-68
2024/01/01 12:30:52;;;;;;;8.10;5.87;;;;;;;;;;758967;182;627049;-63
2024/01/01 12:33:18;;;;;;;8.00;4.47;;;;;;;;;;759002;182;647360;-68
2024/01/01 12:35:44;;;;;;;15.43;5.80;;;;;;;;;;759075;183;637419;-69
2024/01/01 12:38:10;;;;;;;8.17;5.03;;;;;;;;;;756326;181;617888;-68
2024/01/01 12:40:35;;;;;;;9.70;5.97;;;;;;;;;;754202;181;638704;-70
2024/01/01 12:43:01;;;;;;;10.13;6.17;;;;;;;;;;755465;184;643473;-67
2024/01/01 12:45:27;;;;;;;9.02;5.75;;;;;;;;;;758367;181;921124;-68
2024/01/01 12:47:53;;;;;;;8.70;4.63;;;;;;;;;;754686;182;842982;-68
2024/01/01 12:50:19;;;;;;;12.15;6.28;;;;;;;;;;753676;182;918666;-67
2024/01/01 12:52:45;;;;;;;12.13;6.30;;;;;;;;;;761708;181;845502;-68
2024/01/01 12:55:11;;;;;;;10.53;5.63;;;;;;;;;;758907;182;918764;-68
2024/01/01 12:57:36;;;;;;;8.00;4.80;;;;;;;;;;754488;181;920946;-68
2024/01/01 13:00:03;;;;;;;11.10;6.03;;;;;;;;;;761490;182;914578;-69
2024/01/01 13:02:28;;;;;;;10.70;6.00;;;;;;;;;;761555;182;843848;-67
2024/01/01 13:04:54;;;;;;;9.00;6.17;;;;;;;;;;753562;183;923122;-62
2024/01/01 13:07:20;;;;;;;9.77;5.53;;;;;;;;;;730395;189;923666;-63
2024/01/01 13:09:46;;;;;;;12.80;5.40;;;;;;;;;;752626;183;919306;-68
2024/01/01 13:12:12;;;;;;;9.90;5.80;;;;;;;;;;762393;181;921432;-63
2024/01/01 13:14:38;;;;;;;13.00;5.83;;;;;;;;;;755641;182;919033;-67
2024/01/01 13:17:04;;;;;;;12.00;5.87;;;;;;;;;;761286;181;798834;-63
2024/01/01 13:19:29;;;;;;;14.77;6.07;;;;;;;;;;754138;181;816248;-63
2024/01/01 13:21:55;;;;;;;13.93;6.57;;;;;;;;;;754514;182;918052;-63
2024/01/01 13:24:21;;;;;;;11.67;6.73;;;;;;;;;;760605;181;816122;-63
2024/01/01 13:26:47;;;;;;;11.17;5.63;;;;;;;;;;754493;182;920897;-62
2024/01/01 13:29:13;;;;;;;8.27;5.20;;;;;;;;;;752534;185;914300;-69
2024/01/01 13:31:39;;;;;;;14.57;7.63;;;;;;;;;;741186;187;917128;-67
2024/01/01 13:34:04;;;;;;;9.70;5.63;;;;;;;;;;761399;181;858065;-68
2024/01/01 13:36:31;;;;;;;10.50;5.27;;;;;;;;;;754052;178;927930;-63
2024/01/01 13:38:56;;;;;;;10.13;5.57;;;;;;;;;;751649;184;915387;-62
2024/01/01 13:41:22;;;;;;;8.63;5.10;;;;;;;;;;734831;188;819921;-69
2024/01/01 13:43:48;;;;;;;8.30;5.13;;;;;;;;;;730865;188;778031;-64
2024/01/01 13:46:14;;;;;;;10.40;5.80;;;;;;;;;;754040;182;815640;-68
2024/01/01 13:48:39;;;;;;;13.10;5.53;;;;;;;;;;759966;182;916244;-68
2024/01/01 13:51:06;;;;;;;9.70;5.57;;;;;;;;;;753612;184;815095;-63
2024/01/01 13:53:32;;;;;;;7.13;4.60;;;;;;;;;;758468;181;819073;-62
2024/01/01 13:55:57;;;;;;;8.73;5.10;;;;;;;;;;758969;181;917169;-62
2024/01/01 13:58:23;;;;;;;9.32;4.93;;;;;;;;;;756326;181;917211;-62
2024/01/01 14:00:49;;;;;;;13.00;5.43;;;;;;;;;;756589;181;918505;-68
2024/01/01 14:03:15;;;;;;;9.67;5.07;;;;;;;;;;752577;183;918673;-67
2024/01/01 14:05:41;;;;;;;13.30;5.87;;;;;;;;;;758739;182;917520;-63